Time,TemperatureF,DewpointF,PressureIn,WindDirection,WindDirectionDegrees,WindSpeedMPH,WindSpeedGustMPH,Humidity,HourlyPrecipIn,Conditions,Clouds,dailyrainin,SoftwareType,DateUTC
2013-02-16 00:18:00,35.4,23.1,29.98,West,262,2.7,4.9,60,0.04,,---,0.00,VWS V12.08,2013-02-16 05:18:00,
2013-02-16 00:38:00,35.1,22.8,29.98,North,357,0.0,3.6,60,0.04,,---,0.04,VWS V12.08,2013-02-16 05:38:00,
2013-02-16 00:58:00,35.2,22.5,29.98,WNW,284,0.0,0.0,59,0.04,,---,0.04,VWS V12.08,2013-02-16 05:58:00,
2013-02-16 01:18:00,34.9,22.6,29.98,WNW,283,0.0,0.0,60,0.04,,---,0.04,VWS V12.08,2013-02-16 06:18:00,
2013-02-16 01:38:00,34.5,23.5,29.98,West,262,0.0,0.0,64,0.04,,---,0.04,VWS V12.08,2013-02-16 06:38:00,
2013-02-16 01:58:00,34.5,24.0,29.98,NW,305,0.0,4.0,65,0.00,,---,0.04,VWS V12.08,2013-02-16 06:58:00,
2013-02-16 02:18:00,34.5,24.7,29.95,West,279,0.0,0.0,67,0.00,,---,0.04,VWS V12.08,2013-02-16 07:18:00,
2013-02-16 02:38:00,34.9,23.0,29.95,West,278,0.0,0.0,62,0.00,,---,0.04,VWS V12.08,2013-02-16 07:38:00,
2013-02-16 02:58:00,34.9,23.5,29.95,West,279,0.0,0.0,63,0.00,,---,0.04,VWS V12.08,2013-02-16 07:58:00,
2013-02-16 03:18:00,34.9,23.0,29.92,NNE,31,0.0,0.0,62,0.00,,---,0.04,VWS V12.08,2013-02-16 08:18:00,
2013-02-16 03:38:00,35.2,23.8,29.95,NNE,31,0.0,0.0,63,0.00,,---,0.04,VWS V12.08,2013-02-16 08:38:00,
2013-02-16 03:58:00,35.1,22.8,29.95,WNW,293,0.0,0.0,60,0.00,,---,0.04,VWS V12.08,2013-02-16 08:58:00,
2013-02-16 04:18:00,34.9,24.3,29.95,West,275,0.0,4.0,65,0.00,,---,0.04,VWS V12.08,2013-02-16 09:18:00,
2013-02-16 04:38:00,34.9,25.1,29.95,WNW,287,0.0,3.6,67,0.00,,---,0.04,VWS V12.08,2013-02-16 09:38:00,
2013-02-16 04:58:00,35.1,24.5,29.95,West,281,0.0,0.0,65,0.00,,---,0.04,VWS V12.08,2013-02-16 09:58:00,
2013-02-16 05:18:00,35.4,25.2,29.95,West,280,0.0,0.0,66,0.00,,---,0.04,VWS V12.08,2013-02-16 10:18:00,
2013-02-16 05:38:00,35.4,24.4,29.95,West,280,0.0,0.0,64,0.00,,---,0.04,VWS V12.08,2013-02-16 10:38:00,
2013-02-16 05:58:00,35.1,24.0,29.95,West,281,0.0,0.0,64,0.00,,---,0.04,VWS V12.08,2013-02-16 10:58:00,
2013-02-16 06:18:00,34.9,23.9,29.95,West,280,0.0,0.0,64,0.00,,---,0.04,VWS V12.08,2013-02-16 11:18:00,
2013-02-16 06:38:00,34.9,23.9,29.95,West,280,0.0,0.0,64,0.00,,---,0.04,VWS V12.08,2013-02-16 11:38:00,
2013-02-16 06:58:00,34.3,17.4,29.95,East,96,2.2,8.1,50,0.00,,---,0.04,VWS V12.08,2013-02-16 11:58:00,
2013-02-16 07:18:00,34.5,16.5,29.95,NE,54,0.0,6.7,47,0.00,,---,0.04,VWS V12.08,2013-02-16 12:18:00,
2013-02-16 07:38:00,34.5,16.5,29.95,ENE,66,3.6,6.3,47,0.00,,---,0.04,VWS V12.08,2013-02-16 12:38:00,
2013-02-16 07:58:00,34.3,15.8,29.98,North,6,4.0,10.1,46,0.00,,---,0.04,VWS V12.08,2013-02-16 12:58:00,
2013-02-16 08:18:00,34.9,16.3,29.95,North,11,6.3,6.3,46,0.00,,---,0.04,VWS V12.08,2013-02-16 13:18:00,
2013-02-16 08:38:00,34.7,15.6,29.95,NNE,17,6.3,7.6,45,0.00,,---,0.04,VWS V12.08,2013-02-16 13:38:00,
2013-02-16 09:18:00,34.5,15.4,29.95,North,10,5.4,7.6,45,0.00,,---,0.04,VWS V12.08,2013-02-16 14:18:00,
2013-02-16 09:38:00,34.5,15.4,29.95,North,10,4.0,8.3,45,0.00,,---,0.04,VWS V12.08,2013-02-16 14:38:00,
2013-02-16 09:58:00,34.9,15.8,29.95,NE,47,4.0,8.7,45,0.00,,---,0.04,VWS V12.08,2013-02-16 14:58:00,
2013-02-16 10:18:00,34.9,15.8,29.95,NE,46,4.0,8.7,45,0.00,,---,0.04,VWS V12.08,2013-02-16 15:18:00,
2013-02-16 10:38:00,35.6,15.9,29.95,ESE,105,3.1,6.3,44,0.00,,---,0.04,VWS V12.08,2013-02-16 15:38:00,
2013-02-16 10:58:00,36.0,16.2,29.95,SE,128,4.9,8.3,44,0.00,,---,0.04,VWS V12.08,2013-02-16 15:58:00,
2013-02-16 11:18:00,35.4,15.7,29.92,NNE,13,3.1,8.1,44,0.00,,---,0.04,VWS V12.08,2013-02-16 16:18:00,
2013-02-16 11:38:00,36.3,16.5,29.92,NW,325,4.0,11.0,44,0.00,,---,0.04,VWS V12.08,2013-02-16 16:38:00,
2013-02-16 11:58:00,36.3,16.5,29.92,North,353,2.7,9.2,44,0.00,,---,0.04,VWS V12.08,2013-02-16 16:58:00,
2013-02-16 12:18:00,36.3,16.5,29.92,NW,317,4.0,8.7,44,0.00,,---,0.04,VWS V12.08,2013-02-16 17:18:00,
2013-02-16 12:38:00,36.7,16.8,29.92,North,353,7.6,8.1,44,0.00,,---,0.04,VWS V12.08,2013-02-16 17:38:00,
2013-02-16 12:58:00,37.0,17.2,29.89,North,4,0.0,8.7,44,0.00,,---,0.04,VWS V12.08,2013-02-16 17:58:00,
2013-02-16 13:18:00,37.0,17.2,29.89,NW,323,4.9,8.7,44,0.00,,---,0.04,VWS V12.08,2013-02-16 18:18:00,
2013-02-16 13:38:00,37.8,17.8,29.89,North,5,9.6,9.6,44,0.00,,---,0.04,VWS V12.08,2013-02-16 18:38:00,
2013-02-16 13:58:00,37.8,17.8,29.86,NNE,33,3.6,9.6,44,0.00,,---,0.04,VWS V12.08,2013-02-16 18:58:00,
2013-02-16 14:18:00,36.9,17.0,29.86,NW,312,4.9,10.1,44,0.00,,---,0.04,VWS V12.08,2013-02-16 19:18:00,
2013-02-16 14:38:00,37.0,17.2,29.86,NNE,13,4.9,8.3,44,0.00,,---,0.04,VWS V12.08,2013-02-16 19:38:00,
2013-02-16 14:58:00,36.9,17.0,29.86,NNE,29,6.3,10.1,44,0.00,,---,0.04,VWS V12.08,2013-02-16 19:58:00,
2013-02-16 15:18:00,36.7,16.8,29.86,NNE,27,0.0,8.1,44,0.00,,---,0.04,VWS V12.08,2013-02-16 20:18:00,
2013-02-16 15:38:00,36.1,16.4,29.86,NE,38,2.7,8.1,44,0.00,,---,0.04,VWS V12.08,2013-02-16 20:38:00,
2013-02-16 15:58:00,36.3,16.5,29.86,NNW,342,3.6,8.7,44,0.00,,---,0.04,VWS V12.08,2013-02-16 20:58:00,
2013-02-16 16:18:00,35.4,15.7,29.86,NNW,346,4.9,9.6,44,0.00,,---,0.04,VWS V12.08,2013-02-16 21:18:00,
2013-02-16 16:38:00,35.1,15.4,29.86,West,275,3.6,11.4,44,0.00,,---,0.04,VWS V12.08,2013-02-16 21:38:00,
2013-02-16 16:58:00,35.1,15.4,29.86,North,349,4.5,8.3,44,0.00,,---,0.04,VWS V12.08,2013-02-16 21:58:00,
2013-02-16 17:18:00,34.5,14.9,29.86,NNW,335,4.9,7.6,44,0.00,,---,0.04,VWS V12.08,2013-02-16 22:18:00,
2013-02-16 17:38:00,34.3,14.7,29.86,NNW,346,0.0,7.6,44,0.00,,---,0.04,VWS V12.08,2013-02-16 22:38:00,
2013-02-16 17:58:00,34.0,14.4,29.86,NNW,345,2.7,6.3,44,0.00,,---,0.04,VWS V12.08,2013-02-16 22:58:00,
2013-02-16 18:18:00,33.8,14.2,29.86,NW,305,0.0,6.3,44,0.00,,---,0.04,VWS V12.08,2013-02-16 23:18:00,
2013-02-16 18:38:00,33.8,14.2,29.86,NNW,331,2.2,8.1,44,0.00,,---,0.04,VWS V12.08,2013-02-16 23:38:00,
2013-02-16 18:58:00,33.8,14.2,29.86,NW,326,0.0,5.8,44,0.00,,---,0.04,VWS V12.08,2013-02-16 23:58:00,
2013-02-16 19:18:00,33.3,14.3,29.83,North,5,2.2,7.6,45,0.00,,---,0.04,VWS V12.08,2013-02-17 00:18:00,
2013-02-16 19:38:00,33.3,14.3,29.83,North,3,4.0,8.3,45,0.00,,---,0.04,VWS V12.08,2013-02-17 00:38:00,
2013-02-16 19:58:00,33.1,14.1,29.83,North,357,3.6,10.1,45,0.00,,---,0.04,VWS V12.08,2013-02-17 00:58:00,
2013-02-16 20:18:00,32.9,13.9,29.83,West,259,0.0,8.1,45,0.00,,---,0.04,VWS V12.08,2013-02-17 01:18:00,
2013-02-16 20:38:00,32.7,13.8,29.83,NNW,341,5.8,8.3,45,0.00,,---,0.04,VWS V12.08,2013-02-17 01:38:00,
2013-02-16 20:58:00,32.5,13.6,29.83,NW,309,5.4,11.0,45,0.00,,---,0.04,VWS V12.08,2013-02-17 01:58:00,
2013-02-16 21:18:00,32.4,13.5,29.83,North,353,3.6,12.3,45,0.00,,---,0.04,VWS V12.08,2013-02-17 02:18:00,
2013-02-16 21:38:00,32.2,13.3,29.83,WNW,292,2.7,11.9,45,0.00,,---,0.04,VWS V12.08,2013-02-17 02:38:00,
2013-02-16 21:58:00,32.0,13.1,29.80,North,3,3.1,13.2,45,0.00,,---,0.04,VWS V12.08,2013-02-17 02:58:00,
2013-02-16 22:18:00,31.6,12.8,29.80,NW,319,4.5,14.5,45,0.00,,---,0.04,VWS V12.08,2013-02-17 03:18:00,
2013-02-16 22:38:00,31.5,12.6,29.80,North,7,4.0,12.8,45,0.00,,---,0.04,VWS V12.08,2013-02-17 03:38:00,
2013-02-16 22:58:00,31.1,12.3,29.80,NNW,343,4.9,15.0,45,0.00,,---,0.04,VWS V12.08,2013-02-17 03:58:00,
2013-02-16 23:18:00,30.7,12.0,29.80,NNW,330,5.4,15.4,45,0.00,,---,0.04,VWS V12.08,2013-02-17 04:18:00,
2013-02-16 23:38:00,30.4,11.6,29.78,West,274,0.0,13.2,45,0.00,,---,0.04,VWS V12.08,2013-02-17 04:38:00,
2013-02-16 23:58:00,30.2,11.5,29.78,NW,315,10.1,17.4,45,0.00,,---,0.00,VWS V12.08,2013-02-17 04:58:00,